CDT,Max TemperatureF,Mean TemperatureF,Min TemperatureF,Max Dew PointF,MeanDew PointF,Min DewpointF,Max Humidity, Mean Humidity, Min Humidity, Max Sea Level PressureIn, Mean Sea Level PressureIn, Min Sea Level PressureIn, Max VisibilityMiles, Mean VisibilityMiles, Min VisibilityMiles, Max Wind SpeedMPH, Mean Wind SpeedMPH, Max Gust SpeedMPH,PrecipitationIn, CloudCover, Events, WindDirDegrees
2012-10-1,73,65,57,55,53,48,82,71,47,29.79,29.70,29.65,10,9,3,17,12,23,0.02,4,,360
2012-10-2,75,64,53,52,48,43,82,59,33,29.96,29.88,29.78,10,10,10,13,7,,0.00,0,,288
2012-10-3,78,68,57,55,53,52,82,63,39,30.12,30.04,29.96,10,9,2,12,6,17,0.02,0,,181
2012-10-4,84,70,57,63,56,54,88,66,37,30.24,30.17,30.12,10,9,4,13,5,20,0.00,0,,160
2012-10-5,84,67,48,64,58,45,87,71,51,30.17,30.09,29.95,10,10,9,26,9,33,0.04,3,Thunderstorm,174
2012-10-6,53,48,44,45,39,34,87,73,47,30.25,30.21,30.16,10,10,4,21,15,28,0.35,8,Thunderstorm,11
2012-10-7,57,50,42,45,39,36,81,67,47,30.30,30.24,30.19,10,10,10,15,8,16,0.03,4,,7
2012-10-8,60,53,46,46,41,37,87,67,45,30.29,30.22,30.16,10,10,8,10,3,,0.01,5,,359
2012-10-9,69,56,42,54,46,37,87,66,43,30.17,30.09,29.96,10,10,3,15,5,18,0.00,2,,166
2012-10-10,66,60,53,55,46,36,94,63,32,30.27,30.19,30.07,10,9,3,20,6,26,0.00,2,,18
2012-10-11,73,64,55,57,48,39,82,63,51,30.27,30.21,30.16,10,10,5,10,6,,0.00,6,,86
2012-10-12,73,65,57,63,59,54,88,82,69,30.31,30.22,30.17,10,9,2,14,5,18,0.00,3,,41
2012-10-13,82,71,60,66,61,57,94,76,54,30.20,30.09,29.93,10,6,0,23,9,30,0.00,4,,151
2012-10-14,78,69,57,64,60,52,88,72,54,30.02,29.96,29.89,10,10,10,29,18,34,0.07,4,Thunderstorm,223
2012-10-15,78,64,51,54,50,48,88,63,34,30.10,30.03,29.97,10,10,9,9,5,,0.00,0,,222
2012-10-16,71,63,55,55,53,48,82,70,53,29.99,29.91,29.80,10,10,3,14,9,,0.00,0,,179
2012-10-17,75,68,59,66,56,52,83,77,68,29.80,29.67,29.50,10,10,6,29,14,33,0.01,3,Thunderstorm,186
2012-10-18,73,62,51,52,42,27,82,58,19,29.89,29.83,29.75,10,10,10,32,9,36,0.00,0,,248
2012-10-19,57,54,51,36,36,34,54,50,44,29.90,29.82,29.79,10,10,9,23,13,33,0.00,3,,266
2012-10-20,,,,,,,,,,29.98,29.92,29.87,10,10,6,12,5,16,0.00,0,,152
2012-10-21,,,,,,,,,,30.02,29.98,29.92,10,10,10,18,10,25,0.00,3,,168
2012-10-22,,,,,,,,,,30.12,30.05,30.01,10,10,10,18,10,24,0.00,1,,167
2012-10-23,,,,,,,,,,30.08,30.02,29.97,10,10,9,17,9,22,0.00,2,,170
2012-10-24,82,74,66,64,62,59,78,64,51,30.09,30.02,29.97,10,10,10,17,8,18,0.00,0,,158
2012-10-25,82,70,55,64,61,52,88,69,51,30.04,29.95,29.90,10,10,10,23,11,30,0.03,4,,177
2012-10-26,53,48,41,48,40,37,87,79,71,30.26,30.18,30.06,10,10,7,24,17,31,0.64,7,Thunderstorm,7
2012-10-27,55,46,37,37,33,30,87,65,38,30.26,30.20,30.14,10,10,10,18,11,24,0.00,0,,351
2012-10-28,57,46,35,36,32,28,81,62,36,30.25,30.21,30.17,10,10,10,16,10,21,0.00,0,,346
2012-10-29,57,45,33,37,31,27,81,62,31,30.33,30.24,30.13,10,10,10,16,8,17,0.00,1,,334
2012-10-30,64,50,35,43,34,30,87,57,31,30.13,30.05,29.97,10,10,2,8,5,,0.00,0,,292
2012-10-31,66,54,42,45,38,34,87,58,32,30.04,30.00,29.96,10,9,2,8,5,,0.00,1,,13